• Join FlightAware (Why Join?)
  • Login
  • US Flag GB Flag 
11:41 EDT


 

Airport Tracker/Info


-or-


 

Live Flight TrackerFlight Track Log ✈ DAL268 ✈ 16-Apr-2013 ✈ KATL - KJFK

Flight Track Log - Related Links

Times and Time Zones

All times are in EDT time to prevent confusion due to time zone crossing. See the DAL268 flight status page for this flight to view local times or setup timezone preferences in your user account.

Time Position Orientation Groundspeed Altitude Reporting Facility
EDT Latitude Longitude Course Direction KTS MPH feet Rate Location/Type
18:18 33.6333 -84.4000 64° Northeast 182 209 1,900  Level Atlanta TRACON
18:19 33.6333 -84.3167 90° East 236 272 3,300 1,800 Climbing Atlanta TRACON
18:20 33.6333 -84.2333 90° East 273 314 5,500 2,340 Climbing Atlanta TRACON
18:21 33.7145 -84.0199 101° East  Level FlightAware Approximate
18:21 33.6333 -84.1333 90° East 293 337 8,000  Level Atlanta TRACON
18:22 33.6922 -83.8859 101° East  Level FlightAware Approximate
18:22 33.6356 -84.0514 88° East 308 354 10,200  Level Atlanta Center
18:23 33.6698 -83.7519 101° East  Level FlightAware Approximate
18:23 33.6439 -83.9564 84° East 303 349 11,100  Level Atlanta Center
18:24 33.6558 -83.6192 64° Northeast  Level FlightAware Approximate
18:24 33.6522 -83.8292 85° East 355 409 12,100  Level Atlanta Center
18:25 33.6581 -83.6869 87° East 402 463 14,100 1,860 Climbing Atlanta Center
18:26 33.6931 -83.5494 73° East 428 493 15,900 1,800 Climbing Atlanta Center
18:27 33.7508 -83.4167 62° Northeast 438 504 17,700 1,680 Climbing Atlanta Center
18:28 33.8064 -83.2764 64° Northeast 450 518 19,300 1,500 Climbing Atlanta Center
18:29 33.8639 -83.1381 63° Northeast 450 518 20,700 1,260 Climbing Atlanta Center
18:30 33.9211 -82.9872 65° Northeast 469 540 21,900 1,260 Climbing Atlanta Center
18:31 33.9886 -82.8236 64° Northeast 482 555 23,300 1,380 Climbing Atlanta Center
18:32 34.0475 -82.6700 65° Northeast 489 563 24,700 1,560 Climbing Atlanta Center
18:33 34.1042 -82.5236 65° Northeast 489 563 26,500 1,500 Climbing Atlanta Center
18:34 34.1650 -82.3767 63° Northeast 484 557 27,700 1,200 Climbing Atlanta Center
18:35 34.2233 -82.2250 65° Northeast 484 557 28,900 1,140 Climbing Atlanta Center
18:36 34.2878 -82.0803 62° Northeast 484 557 30,000 1,020 Climbing Atlanta Center
18:37 34.3586 -81.9403 58° Northeast 484 557 31,000 480 Climbing Atlanta Center
18:38 34.4292 -81.8000 59° Northeast 484 557 31,000  Level Atlanta Center
18:39 34.4994 -81.6544 60° Northeast 489 563 31,000  Level Atlanta Center
18:40 34.5636 -81.5264 59° Northeast 494 568 31,000  Level Atlanta Center
18:41 34.6317 -81.3831 60° Northeast 494 568 31,000  Level Atlanta Center
18:42 34.7056 -81.2392 58° Northeast 494 568 31,000  Level Atlanta Center
18:43 34.7753 -81.0978 59° Northeast 501 577 31,000  Level Atlanta Center
18:44 34.8447 -80.9511 60° Northeast 501 577 31,000  Level Atlanta Center
18:45 34.9161 -80.8067 59° Northeast 501 577 31,000  Level Atlanta Center
18:47 35.0803 -80.4625 60° Northeast 493 567 31,000  Level Washington Center
18:48 35.1508 -80.3144 60° Northeast 493 567 31,000  Level Washington Center
18:49 35.2192 -80.1708 60° Northeast 493 567 31,000  Level Washington Center
18:50 35.2892 -80.0297 59° Northeast 493 567 31,000  Level Washington Center
18:51 35.3569 -79.8858 60° Northeast 486 559 31,000  Level Washington Center
18:52 35.4269 -79.7367 60° Northeast 486 559 31,000  Level Washington Center
18:53 35.4967 -79.5922 59° Northeast 486 559 31,000  Level Washington Center
18:54 35.5683 -79.4453 59° Northeast 491 565 31,000  Level Washington Center
18:55 35.6375 -79.2978 60° Northeast 497 572 31,000  Level Washington Center
18:56 35.7067 -79.1503 60° Northeast 497 572 31,000  Level Washington Center
18:57 35.7758 -79.0022 60° Northeast 492 566 31,000  Level Washington Center
18:58 35.8425 -78.8539 61° Northeast 497 572 31,000  Level Washington Center
18:59 35.8844 -78.6864 73° East 497 572 31,000  Level Washington Center
19:00 35.9014 -78.5128 83° East 497 572 31,000  Level Washington Center
19:01 35.9172 -78.3697 82° East 505 581 31,000  Level Washington Center
19:02 35.9361 -78.1806 83° East 505 581 31,000  Level Washington Center
19:03 35.9522 -78.0039 84° East 505 581 31,000  Level Washington Center
19:04 35.9703 -77.8325 83° East 505 581 31,000  Level Washington Center
19:05 36.0047 -77.6614 76° East 505 581 31,000  Level Washington Center
19:06 36.0883 -77.5300 52° Northeast 478 550 31,000  Level Washington Center
19:07 36.1761 -77.3856 53° Northeast 478 550 31,000  Level Washington Center
19:08 36.2550 -77.2558 53° Northeast 471 542 31,000  Level Washington Center
19:09 36.3339 -77.1261 53° Northeast 471 542 31,000 -60 Level Washington Center
19:10 36.4022 -77.0086 54° Northeast 471 542 30,900 -60 Descending Washington Center
19:11 36.4186 -76.8489 83° East 453 521 30,900  Level Washington Center
19:12 36.3722 -76.6933 110° East 436 502 30,900  Level Washington Center
19:13 36.3256 -76.5408 111° Southeast 454 522 30,900  Level Washington Center
19:14 36.2911 -76.3856 105° East 460 529 30,900  Level Washington Center
19:15 36.3628 -76.2547 56° Northeast 409 471 30,900  Level Washington Center
19:16 36.4842 -76.1992 20° North 385 443 30,900  Level Washington Center
19:17 36.6097 -76.1406 21° North 421 484 30,900  Level Washington Center
19:18 36.7308 -76.0844 20° North 445 512 31,000  Climbing Washington Center
19:19 36.8542 -76.0256 21° North 461 531 31,000 -60 Level Washington Center
19:20 36.9942 -75.9664 19° North 469 540 30,900 -60 Descending Washington Center
19:21 37.1153 -75.9097 20° North 474 545 30,900  Level Washington Center
19:22 37.2364 -75.8553 20° North 464 534 30,900  Level Washington Center
19:23 37.3594 -75.7956 21° North 464 534 30,900  Level Washington Center
19:24 37.4806 -75.7383 21° North 464 534 30,900  Level Washington Center
19:25 37.6036 -75.6836 19° North 464 534 30,900  Level Washington Center
19:26 37.7228 -75.6233 22° Northeast 469 540 30,900  Level Washington Center
19:27 37.8458 -75.5656 20° North 469 540 30,900  Level Washington Center
19:28 37.9686 -75.5100 20° North 469 540 30,900  Level Washington Center
19:29 38.0875 -75.4519 21° North 463 533 30,900  Level Washington Center
19:30 38.2064 -75.3778 26° Northeast 463 533 30,900  Level Washington Center
19:31 38.2958 -75.3192 27° Northeast 463 533 30,900  Level Washington Center
19:32 38.4228 -75.2367 27° Northeast 458 527 30,900  Level Washington Center
19:33 38.5394 -75.1644 26° Northeast 458 527 30,900  Level Washington Center
19:34 38.6558 -75.0919 26° Northeast 463 533 30,900  Level Washington Center
19:35 38.7742 -75.0111 28° Northeast 468 539 30,900  Level Washington Center
19:36 38.8928 -74.9328 27° Northeast 468 539 30,900  Level Washington Center
19:37 39.0111 -74.8597 26° Northeast 468 539 30,900 -480 Level Washington Center
19:38 39.1253 -74.7783 29° Northeast 463 533 30,000 -2,160 Descending Washington Center
19:39 39.2264 -74.6700 40° Northeast 469 540 26,600 -2,760 Descending Washington Center
19:41 39.3163 -74.5563 44° Northeast  Level FlightAware Approximate
19:41 39.4072 -74.4681 44° Northeast 468 539 22,200  Level New York Center
19:42 39.5003 -74.3653 40° Northeast 453 521 19,700 -2,160 Descending New York Center
19:43 39.5908 -74.2647 41° Northeast 438 504 18,000 -1,440 Descending New York Center
19:44 39.6856 -74.1589 41° Northeast 412 474 16,800 -1,680 Descending New York Center
19:45 39.7675 -74.0683 40° Northeast 393 452 14,600 -2,280 Descending New York Center
19:46 39.8425 -73.9881 39° Northeast 382 440 12,300 -1,860 Descending New York Center
19:47 39.9297 -73.9244 29° Northeast 371 427 11,000 -720 Descending New York Center
19:48 40.0211 -73.8556 30° Northeast 350 403 10,900  Descending New York Center
19:49 40.0736 -73.7603 54° Northeast 315 362 11,000 -600 Climbing New York Center
19:50 40.1303 -73.6703 51° Northeast 315 362 9,800 -1,380 Descending New York Center
19:51 40.1833 -73.6667 North 270 311 8,600 -1,560 Descending New York TRACON
19:52 40.2333 -73.7500 308° West 248 285 7,000 -1,800 Descending New York TRACON
19:53 40.2833 -73.8167 315° West 262 302 5,100 -1,740 Descending New York TRACON
19:54 40.3167 -73.8833 303° West 263 303 3,700 -1,440 Descending New York TRACON
19:54 40.3369 -73.8942 338° Northwest 263 303 3,400 -660 Descending New York Center
19:55 40.3833 -73.9333 327° Northwest 279 321 3,000 -240 Descending New York TRACON
19:56 40.4500 -73.9500 349° North 278 320 3,000  Level New York TRACON
19:57 40.5333 -73.9500 360° North 211 243 3,000  Level New York TRACON